createdAt,value
2018-07-09T00:00:36.609Z,9.80
2018-07-09T00:03:06.316Z,7.47
2018-07-09T00:05:35.900Z,6.67
2018-07-09T00:08:03.275Z,7.40
2018-07-09T00:10:42.167Z,6.60
2018-07-09T00:13:09.550Z,5.90
2018-07-09T00:15:36.974Z,6.30
2018-07-09T00:18:04.368Z,6.77
2018-07-09T00:20:31.703Z,8.23
2018-07-09T00:22:59.015Z,8.47
2018-07-09T00:25:26.348Z,8.17
2018-07-09T00:27:53.698Z,10.43
2018-07-09T00:30:21.031Z,7.93
2018-07-09T00:32:48.375Z,8.10
2018-07-09T00:35:15.704Z,10.80
2018-07-09T00:37:43.035Z,9.07
2018-07-09T00:40:10.366Z,9.83
2018-07-09T00:42:37.724Z,8.87
2018-07-09T00:45:05.060Z,6.33
2018-07-09T00:47:32.395Z,7.93
2018-07-09T00:49:59.759Z,9.13
2018-07-09T00:52:27.144Z,8.07
2018-07-09T00:54:54.478Z,9.37
2018-07-09T00:57:21.855Z,9.10
2018-07-09T00:59:49.452Z,10.00
2018-07-09T01:02:16.827Z,6.07
2018-07-09T01:04:44.159Z,7.60
2018-07-09T01:07:11.487Z,11.73
2018-07-09T01:09:38.815Z,8.67
2018-07-09T01:12:07.441Z,8.70
2018-07-09T01:14:35.062Z,8.33
2018-07-09T01:17:02.384Z,9.10
2018-07-09T01:19:29.799Z,10.87
2018-07-09T01:21:57.135Z,9.23
2018-07-09T01:24:24.474Z,13.60
2018-07-09T01:26:51.820Z,8.47
2018-07-09T01:29:19.174Z,12.20
2018-07-09T01:31:46.566Z,9.87
2018-07-09T01:34:13.901Z,10.20
2018-07-09T01:36:41.220Z,9.20
2018-07-09T01:39:08.551Z,9.57
2018-07-09T01:41:35.914Z,8.47
2018-07-09T01:44:03.256Z,10.20
2018-07-09T01:46:30.658Z,9.53
2018-07-09T01:48:57.983Z,9.67
2018-07-09T01:51:25.304Z,11.20
2018-07-09T01:53:52.627Z,11.03
2018-07-09T01:56:19.975Z,10.23
2018-07-09T01:58:47.360Z,12.40
2018-07-09T02:01:14.707Z,10.13
2018-07-09T02:03:42.058Z,9.10
2018-07-09T02:06:09.403Z,10.63
2018-07-09T02:08:37.143Z,9.87
2018-07-09T02:11:04.696Z,9.17
2018-07-09T02:13:32.011Z,11.90
2018-07-09T02:15:59.342Z,10.93
2018-07-09T02:18:26.666Z,11.00
2018-07-09T02:20:54.015Z,12.27
2018-07-09T02:23:21.375Z,9.13
2018-07-09T02:25:48.707Z,9.03
2018-07-09T02:28:16.058Z,10.00
2018-07-09T02:30:43.394Z,9.17
2018-07-09T02:33:10.723Z,7.87
2018-07-09T02:35:38.063Z,8.37
2018-07-09T02:38:05.379Z,13.47
2018-07-09T02:40:32.715Z,10.57
2018-07-09T02:43:00.056Z,10.80
2018-07-09T02:45:27.404Z,7.93
2018-07-09T02:49:24.325Z,8.13
2018-07-09T02:51:51.795Z,8.60
2018-07-09T02:54:19.131Z,9.00
2018-07-09T02:56:46.467Z,9.23
2018-07-09T02:59:14.003Z,10.27
2018-07-09T03:01:41.371Z,7.57
2018-07-09T03:04:08.715Z,9.73
2018-07-09T03:06:36.048Z,7.80
2018-07-09T03:09:04.220Z,8.67
2018-07-09T03:11:31.552Z,10.37
2018-07-09T03:13:58.887Z,10.17
2018-07-09T03:16:26.251Z,11.17
2018-07-09T03:18:53.591Z,9.93
2018-07-09T03:21:20.919Z,9.57
2018-07-09T03:23:48.275Z,8.33
2018-07-09T03:26:15.617Z,8.43
2018-07-09T03:28:42.977Z,9.07
2018-07-09T03:31:10.316Z,10.43
2018-07-09T03:33:37.666Z,11.67
2018-07-09T03:36:05.025Z,9.50
2018-07-09T03:38:32.385Z,8.57
2018-07-09T03:40:59.744Z,11.70
2018-07-09T03:43:27.071Z,11.13
2018-07-09T03:45:54.403Z,12.83
2018-07-09T03:48:21.738Z,8.97
2018-07-09T03:50:49.072Z,7.70
2018-07-09T03:53:16.407Z,9.97
2018-07-09T03:55:43.734Z,11.27
2018-07-09T03:58:11.149Z,9.80
2018-07-09T04:00:38.431Z,9.47
2018-07-09T04:03:05.774Z,12.93
2018-07-09T04:05:33.192Z,9.60
2018-07-09T04:08:00.535Z,10.10
2018-07-09T04:10:27.867Z,11.77
2018-07-09T04:12:55.183Z,9.53
2018-07-09T04:15:22.519Z,8.40
2018-07-09T04:17:50.474Z,11.70
2018-07-09T04:20:17.835Z,10.03
2018-07-09T04:22:45.183Z,12.93
2018-07-09T04:25:12.573Z,13.10
2018-07-09T04:27:39.923Z,11.47
2018-07-09T04:30:07.299Z,10.53
2018-07-09T04:32:34.647Z,10.70
2018-07-09T04:35:01.997Z,10.47
2018-07-09T04:37:29.334Z,12.03
2018-07-09T04:39:56.660Z,11.83
2018-07-09T04:42:23.994Z,11.87
2018-07-09T04:44:51.335Z,10.47
2018-07-09T04:47:18.731Z,13.13
2018-07-09T04:49:46.071Z,12.30
2018-07-09T04:52:13.398Z,9.67
2018-07-09T04:54:40.751Z,9.80
2018-07-09T04:57:08.089Z,8.87
2018-07-09T04:59:35.688Z,8.77
2018-07-09T05:02:03.022Z,8.13
2018-07-09T05:04:30.347Z,10.77
2018-07-09T05:06:57.671Z,7.33
2018-07-09T05:09:25.009Z,6.10
2018-07-09T05:11:52.374Z,9.17
2018-07-09T05:14:19.733Z,6.17
2018-07-09T05:16:47.075Z,5.97
2018-07-09T05:19:14.412Z,8.10
2018-07-09T05:21:41.752Z,6.37
2018-07-09T05:24:09.099Z,5.83
2018-07-09T05:26:36.439Z,7.77
2018-07-09T05:29:03.803Z,8.77
2018-07-09T05:31:31.144Z,6.63
2018-07-09T05:33:58.475Z,5.70
2018-07-09T05:36:25.831Z,6.43
2018-07-09T05:38:53.187Z,7.77
2018-07-09T05:41:20.543Z,10.50
2018-07-09T05:43:47.887Z,5.83
2018-07-09T05:46:15.252Z,5.57
2018-07-09T05:48:42.598Z,9.40
2018-07-09T05:51:10.284Z,6.10
2018-07-09T05:53:37.712Z,6.63
2018-07-09T05:56:05.043Z,5.23
2018-07-09T05:58:32.375Z,7.63
2018-07-09T06:00:59.764Z,6.13
2018-07-09T06:03:27.099Z,6.93
2018-07-09T06:05:54.518Z,6.47
2018-07-09T06:08:21.872Z,7.47
2018-07-09T06:10:49.202Z,5.70
2018-07-09T06:13:16.522Z,4.60
2018-07-09T06:15:43.979Z,7.17
2018-07-09T06:18:11.312Z,7.60
2018-07-09T06:20:38.659Z,6.17
2018-07-09T06:23:06.308Z,5.13
2018-07-09T06:25:33.672Z,7.10
2018-07-09T06:28:01.000Z,5.80
2018-07-09T06:30:28.347Z,5.53
2018-07-09T06:32:55.704Z,5.47
2018-07-09T06:35:23.041Z,6.97
2018-07-09T06:37:50.704Z,4.40
2018-07-09T06:40:18.048Z,5.47
2018-07-09T06:42:45.417Z,6.67
2018-07-09T06:45:12.755Z,4.60
2018-07-09T06:47:40.095Z,5.90
2018-07-09T06:50:07.534Z,5.97
2018-07-09T06:52:34.854Z,7.23
2018-07-09T06:55:02.180Z,4.93
2018-07-09T06:57:29.524Z,5.30
2018-07-09T06:59:56.868Z,6.97
2018-07-09T07:02:24.221Z,4.27
2018-07-09T07:04:51.571Z,4.40
2018-07-09T07:07:18.908Z,4.83
2018-07-09T07:09:46.300Z,6.00
2018-07-09T07:12:13.691Z,5.37
2018-07-09T07:14:41.025Z,4.03
2018-07-09T07:17:08.411Z,6.47
2018-07-09T07:19:35.755Z,5.17
2018-07-09T07:22:03.079Z,6.03
2018-07-09T07:24:30.487Z,6.63
2018-07-09T07:26:57.831Z,5.10
2018-07-09T07:29:25.161Z,4.23
2018-07-09T07:31:52.503Z,3.70
2018-07-09T07:34:19.896Z,6.27
2018-07-09T07:36:47.191Z,7.73
2018-07-09T07:39:14.627Z,6.23
2018-07-09T07:41:42.008Z,4.33
2018-07-09T07:44:09.539Z,6.90
2018-07-09T07:46:36.885Z,6.60
2018-07-09T07:49:04.231Z,8.50
2018-07-09T07:51:31.612Z,7.00
2018-07-09T07:53:58.950Z,6.27
2018-07-09T07:56:26.302Z,6.17
2018-07-09T07:58:53.647Z,8.70
2018-07-09T08:01:20.963Z,7.30
2018-07-09T08:03:48.319Z,7.10
2018-07-09T08:06:15.679Z,7.53
2018-07-09T08:08:42.999Z,6.53
2018-07-09T08:11:11.511Z,5.33
2018-07-09T08:13:37.752Z,5.93
2018-07-09T08:16:05.553Z,4.80
2018-07-09T08:18:32.900Z,6.60
2018-07-09T08:21:00.235Z,5.03
2018-07-09T08:23:27.612Z,3.77
2018-07-09T08:25:54.963Z,5.37
2018-07-09T08:28:22.318Z,6.07
2018-07-09T08:30:49.675Z,7.13
2018-07-09T08:33:17.084Z,5.43
2018-07-09T08:35:44.424Z,5.13
2018-07-09T08:38:11.770Z,7.57
2018-07-09T08:40:39.218Z,8.47
2018-07-09T08:43:06.571Z,7.17
2018-07-09T08:45:33.925Z,6.43
2018-07-09T08:48:01.318Z,6.73
2018-07-09T08:50:28.681Z,5.83
2018-07-09T08:52:56.133Z,5.57
2018-07-09T08:55:23.541Z,5.40
2018-07-09T08:57:50.843Z,7.43
2018-07-09T09:00:18.183Z,6.53
2018-07-09T09:02:45.519Z,6.53
2018-07-09T09:05:12.880Z,6.30
2018-07-09T09:07:40.237Z,5.50
2018-07-09T09:10:07.655Z,7.23
2018-07-09T09:12:34.942Z,6.60
2018-07-09T09:15:02.331Z,6.97
2018-07-09T09:17:29.719Z,4.63
2018-07-09T09:19:57.127Z,6.97
2018-07-09T09:22:24.467Z,7.83
2018-07-09T09:24:51.806Z,5.77
2018-07-09T09:27:19.143Z,4.33
2018-07-09T09:29:46.460Z,10.27
2018-07-09T09:32:13.812Z,5.83
2018-07-09T09:34:41.160Z,5.97
2018-07-09T09:37:08.623Z,8.77
2018-07-09T09:39:36.475Z,7.33
2018-07-09T09:42:04.048Z,5.67
2018-07-09T09:44:31.380Z,5.70
2018-07-09T09:46:58.747Z,5.53
2018-07-09T09:49:26.114Z,8.17
2018-07-09T09:51:53.439Z,8.10
2018-07-09T09:54:20.764Z,4.83
2018-07-09T09:56:48.126Z,4.97
2018-07-09T09:59:15.468Z,5.83
2018-07-09T10:01:42.849Z,4.73
2018-07-09T10:04:10.180Z,6.40
2018-07-09T10:06:37.524Z,5.70
2018-07-09T10:09:05.491Z,4.47
2018-07-09T10:11:32.824Z,5.80
2018-07-09T10:14:00.235Z,7.80
2018-07-09T10:16:27.570Z,5.20
2018-07-09T10:18:54.900Z,6.77
2018-07-09T10:21:22.234Z,5.30
2018-07-09T10:23:49.680Z,4.97
2018-07-09T10:26:17.032Z,5.67
2018-07-09T10:28:44.370Z,5.10
2018-07-09T10:31:11.707Z,7.77
2018-07-09T10:33:39.048Z,5.17
2018-07-09T10:36:06.396Z,7.00
2018-07-09T10:38:33.763Z,7.93
2018-07-09T10:41:01.219Z,4.70
2018-07-09T10:43:28.574Z,5.73
2018-07-09T10:45:55.951Z,5.80
2018-07-09T10:48:23.291Z,3.20
2018-07-09T10:50:50.618Z,5.90
2018-07-09T10:53:17.964Z,5.13
2018-07-09T10:55:45.300Z,4.63
2018-07-09T10:58:12.807Z,4.80
2018-07-09T11:00:40.146Z,6.47
2018-07-09T11:03:07.503Z,4.60
2018-07-09T11:05:34.863Z,4.53
2018-07-09T11:08:02.215Z,5.60
2018-07-09T11:10:29.551Z,11.53
2018-07-09T11:12:56.879Z,5.07
2018-07-09T11:15:24.224Z,4.43
2018-07-09T11:17:51.578Z,6.80
2018-07-09T11:20:18.913Z,3.83
2018-07-09T11:22:46.313Z,3.27
2018-07-09T11:25:13.659Z,3.73
2018-07-09T11:27:41.004Z,3.30
2018-07-09T11:30:08.349Z,4.07
2018-07-09T11:32:35.678Z,2.40
2018-07-09T11:35:03.048Z,2.83
2018-07-09T11:37:30.588Z,2.27
2018-07-09T11:39:58.088Z,2.60
2018-07-09T11:42:25.431Z,2.80
2018-07-09T11:44:54.009Z,3.00
2018-07-09T11:47:21.355Z,2.23
2018-07-09T11:49:48.706Z,2.80
2018-07-09T11:52:16.049Z,2.53
2018-07-09T11:54:43.383Z,3.77
2018-07-09T11:57:10.717Z,6.53
2018-07-09T11:59:38.047Z,6.10
2018-07-09T12:02:05.442Z,7.27
2018-07-09T12:04:32.771Z,5.70
2018-07-09T12:07:00.116Z,6.80
2018-07-09T12:09:27.493Z,7.07
2018-07-09T12:11:54.828Z,3.30
2018-07-09T12:14:22.327Z,5.47
2018-07-09T12:16:49.666Z,3.47
2018-07-09T12:19:17.011Z,5.57
2018-07-09T12:21:44.353Z,3.63
2018-07-09T12:24:11.699Z,5.40
2018-07-09T12:26:39.056Z,6.57
2018-07-09T12:29:06.498Z,4.63
2018-07-09T12:31:33.799Z,5.80
2018-07-09T12:34:01.140Z,4.27
2018-07-09T12:36:29.219Z,4.63
2018-07-09T12:38:56.459Z,4.33
2018-07-09T12:41:23.809Z,5.20
2018-07-09T12:43:51.177Z,3.33
2018-07-09T12:46:18.495Z,4.27
2018-07-09T12:48:45.839Z,3.13
2018-07-09T12:51:13.175Z,4.57
2018-07-09T12:53:40.523Z,3.57
2018-07-09T12:56:07.860Z,6.03
2018-07-09T12:58:35.276Z,5.00
2018-07-09T13:01:02.631Z,3.70
2018-07-09T13:03:29.994Z,3.30
2018-07-09T13:05:57.339Z,3.77
2018-07-09T13:08:24.674Z,2.60
2018-07-09T13:10:52.030Z,2.20
2018-07-09T13:13:19.383Z,2.60
2018-07-09T13:15:46.744Z,3.60
2018-07-09T13:18:14.098Z,2.67
2018-07-09T13:20:41.447Z,3.57
2018-07-09T13:23:08.804Z,4.33
2018-07-09T13:25:36.146Z,3.97
2018-07-09T13:28:03.537Z,4.83
2018-07-09T13:30:30.885Z,3.20
2018-07-09T13:32:58.230Z,2.60
2018-07-09T13:35:25.603Z,3.47
2018-07-09T13:37:52.972Z,2.40
2018-07-09T13:40:20.286Z,3.90
2018-07-09T13:42:47.646Z,3.93
2018-07-09T13:45:15.017Z,5.83
2018-07-09T13:47:42.351Z,5.73
2018-07-09T13:50:09.672Z,5.33
2018-07-09T13:52:37.037Z,6.23
2018-07-09T13:55:04.384Z,4.87
2018-07-09T13:57:31.735Z,5.80
2018-07-09T13:59:59.079Z,6.57
2018-07-09T14:02:26.474Z,6.90
2018-07-09T14:04:53.836Z,4.83
2018-07-09T14:07:21.215Z,3.70
2018-07-09T14:09:48.542Z,2.73
2018-07-09T14:12:15.904Z,2.60
2018-07-09T14:14:43.258Z,4.03
2018-07-09T14:17:10.624Z,3.23
2018-07-09T14:20:14.615Z,4.10
2018-07-09T14:22:42.062Z,3.30
2018-07-09T14:25:09.457Z,2.83
2018-07-09T14:27:37.103Z,1.70
2018-07-09T14:30:04.477Z,3.13
2018-07-09T14:32:31.858Z,3.13
2018-07-09T14:35:00.220Z,2.40
2018-07-09T14:37:27.780Z,3.27
2018-07-09T14:39:56.048Z,3.37
2018-07-09T14:42:23.397Z,2.00
2018-07-09T14:44:50.938Z,2.53
2018-07-09T14:47:18.395Z,2.57
2018-07-09T14:49:45.715Z,2.43
2018-07-09T14:52:13.043Z,2.80
2018-07-09T14:54:40.471Z,2.63
2018-07-09T14:57:07.913Z,2.00
2018-07-09T14:59:35.239Z,2.10
2018-07-09T15:02:02.567Z,2.20
2018-07-09T15:04:29.929Z,2.53
2018-07-09T15:06:57.257Z,2.50
2018-07-09T15:09:24.617Z,3.70
2018-07-09T15:11:52.017Z,5.53
2018-07-09T15:14:19.368Z,3.47
2018-07-09T15:16:46.736Z,3.73
2018-07-09T15:19:14.076Z,3.93
2018-07-09T15:21:41.460Z,4.33
2018-07-09T15:24:08.843Z,4.33
2018-07-09T15:26:36.186Z,4.53
2018-07-09T15:29:03.576Z,6.47
2018-07-09T15:31:32.795Z,4.03
2018-07-09T15:34:00.139Z,4.13
2018-07-09T15:36:27.476Z,3.63
2018-07-09T15:38:54.905Z,3.83
2018-07-09T15:41:22.270Z,6.43
2018-07-09T15:43:58.132Z,8.10
2018-07-09T15:46:25.471Z,6.80
2018-07-09T15:48:52.855Z,8.07
2018-07-09T15:51:20.217Z,7.10
2018-07-09T15:53:47.550Z,7.90
2018-07-09T15:56:14.929Z,11.17
2018-07-09T15:58:42.274Z,9.17
2018-07-09T16:01:09.652Z,8.93
2018-07-09T16:03:37.011Z,11.93
2018-07-09T16:06:04.492Z,10.10
2018-07-09T16:08:31.892Z,7.97
2018-07-09T16:10:59.227Z,8.40
2018-07-09T16:13:26.591Z,11.80
2018-07-09T16:15:53.928Z,6.57
2018-07-09T16:18:21.359Z,8.87
2018-07-09T16:20:48.703Z,7.60
2018-07-09T16:23:16.058Z,9.77
2018-07-09T16:25:43.548Z,8.33
2018-07-09T16:28:10.895Z,9.23
2018-07-09T16:30:38.260Z,10.53
2018-07-09T16:33:06.004Z,13.20
2018-07-09T16:35:33.379Z,8.33
2018-07-09T16:38:00.717Z,7.03
2018-07-09T16:40:28.068Z,7.70
2018-07-09T16:42:55.420Z,8.87
2018-07-09T16:45:23.067Z,8.10
2018-07-09T16:47:50.420Z,8.87
2018-07-09T16:50:17.776Z,7.40
2018-07-09T16:52:45.150Z,6.93
2018-07-09T16:55:12.513Z,6.10
2018-07-09T16:57:39.889Z,5.57
2018-07-09T17:00:07.315Z,6.67
2018-07-09T17:02:34.671Z,7.87
2018-07-09T17:05:02.018Z,9.40
2018-07-09T17:07:29.367Z,9.83
2018-07-09T17:09:56.727Z,7.37
2018-07-09T17:12:24.132Z,5.93
2018-07-09T17:14:51.508Z,6.87
2018-07-09T17:17:18.868Z,5.47
2018-07-09T17:19:46.243Z,5.20
2018-07-09T17:22:13.594Z,8.90
2018-07-09T17:24:40.939Z,7.23
2018-07-09T17:27:08.345Z,6.43
2018-07-09T17:29:35.923Z,10.00
2018-07-09T17:32:03.283Z,5.80
2018-07-09T17:34:30.833Z,7.27
2018-07-09T17:36:58.191Z,5.17
2018-07-09T17:39:25.527Z,4.83
2018-07-09T17:41:53.004Z,5.53
2018-07-09T17:44:20.571Z,6.47
2018-07-09T17:46:47.899Z,5.33
2018-07-09T17:49:15.343Z,9.00
2018-07-09T17:51:42.725Z,8.50
2018-07-09T17:54:10.308Z,10.77
2018-07-09T17:56:37.682Z,6.17
2018-07-09T17:59:05.029Z,5.93
2018-07-09T18:01:32.393Z,5.70
2018-07-09T18:03:59.735Z,7.20
2018-07-09T18:06:27.084Z,8.30
2018-07-09T18:08:54.448Z,7.13
2018-07-09T18:11:21.794Z,6.03
2018-07-09T18:13:49.403Z,8.43
2018-07-09T18:16:16.730Z,8.17
2018-07-09T18:18:44.069Z,8.73
2018-07-09T18:21:11.401Z,4.23
2018-07-09T18:23:38.759Z,9.83
2018-07-09T18:26:06.121Z,8.67
2018-07-09T18:28:33.460Z,9.43
2018-07-09T18:31:00.835Z,8.47
2018-07-09T18:33:28.187Z,6.00
2018-07-09T18:35:55.542Z,7.07
2018-07-09T18:38:22.861Z,9.70
2018-07-09T18:40:50.214Z,8.23
2018-07-09T18:43:17.579Z,7.77
2018-07-09T18:45:45.006Z,3.43
2018-07-09T18:48:12.386Z,9.00
2018-07-09T18:50:39.707Z,6.73
2018-07-09T18:53:07.045Z,7.00
2018-07-09T18:55:34.399Z,9.13
2018-07-09T18:58:01.744Z,8.80
2018-07-09T19:00:29.099Z,5.93
2018-07-09T19:02:56.465Z,7.63
2018-07-09T19:05:32.381Z,9.00
2018-07-09T19:07:59.775Z,7.10
2018-07-09T19:10:27.144Z,5.97
2018-07-09T19:12:54.479Z,8.17
2018-07-09T19:15:21.940Z,6.00
2018-07-09T19:18:02.117Z,5.93
2018-07-09T19:20:41.055Z,5.80
2018-07-09T19:23:08.217Z,6.23
2018-07-09T19:25:35.575Z,5.20
2018-07-09T19:28:02.916Z,5.90
2018-07-09T19:30:29.322Z,11.07
2018-07-09T19:32:55.699Z,4.07
2018-07-09T19:35:22.567Z,5.00
2018-07-09T19:37:49.227Z,4.90
2018-07-09T19:40:15.376Z,5.13
2018-07-09T19:42:41.795Z,7.90
2018-07-09T19:45:08.172Z,4.67
2018-07-09T19:47:34.578Z,5.60
2018-07-09T19:50:00.987Z,3.93
2018-07-09T19:52:27.376Z,4.10
2018-07-09T19:54:53.809Z,4.53
2018-07-09T19:57:20.198Z,3.97
2018-07-09T19:59:46.583Z,5.20
2018-07-09T20:02:12.982Z,5.77
2018-07-09T20:04:39.592Z,5.80
2018-07-09T20:07:05.972Z,5.90
2018-07-09T20:09:37.963Z,5.40
2018-07-09T20:12:09.972Z,5.17
2018-07-09T20:14:42.173Z,5.17
2018-07-09T20:17:12.213Z,5.47
2018-07-09T20:19:38.591Z,7.00
2018-07-09T20:22:04.963Z,4.80
2018-07-09T20:24:31.356Z,5.23
2018-07-09T20:26:57.798Z,6.00
2018-07-09T20:29:24.151Z,5.23
2018-07-09T20:31:50.990Z,2.33
2018-07-09T20:34:17.356Z,4.77
2018-07-09T20:36:43.743Z,6.83
2018-07-09T20:39:10.131Z,4.33
2018-07-09T20:41:36.555Z,7.50
2018-07-09T20:44:03.249Z,3.70
2018-07-09T20:46:30.096Z,4.20
2018-07-09T20:48:56.935Z,4.00
2018-07-09T20:51:23.327Z,5.20
2018-07-09T20:53:49.743Z,5.80
2018-07-09T20:56:16.143Z,3.70
2018-07-09T20:58:43.010Z,4.03
2018-07-09T21:01:09.404Z,6.25
2018-07-09T21:03:35.795Z,7.90
2018-07-09T21:06:02.192Z,3.33
2018-07-09T21:08:28.579Z,6.90
2018-07-09T21:10:54.956Z,6.00
2018-07-09T21:13:21.345Z,4.87
2018-07-09T21:15:47.840Z,5.73
2018-07-09T21:18:14.133Z,5.77
2018-07-09T21:20:40.508Z,5.17
2018-07-09T21:23:06.908Z,3.50
2018-07-09T21:25:33.286Z,2.90
2018-07-09T21:27:59.708Z,5.07
2018-07-09T21:30:26.083Z,5.47
2018-07-09T21:32:52.467Z,6.43
2018-07-09T21:35:18.860Z,5.90
2018-07-09T21:37:45.425Z,6.80
2018-07-09T21:40:11.688Z,7.33
2018-07-09T21:42:38.067Z,6.27
2018-07-09T21:45:04.452Z,6.87
2018-07-09T21:47:30.832Z,4.73
2018-07-09T21:49:57.224Z,4.97
2018-07-09T21:52:23.718Z,4.40
2018-07-09T21:54:50.105Z,2.63
2018-07-09T21:57:16.499Z,2.37
2018-07-09T21:59:43.071Z,2.83
2018-07-09T22:02:09.448Z,3.17
2018-07-09T22:04:35.821Z,2.45
2018-07-09T22:07:02.207Z,4.93
2018-07-09T22:09:28.615Z,4.33
2018-07-09T22:11:55.014Z,3.20
2018-07-09T22:14:21.404Z,3.93
2018-07-09T22:16:47.779Z,2.00
2018-07-09T22:19:14.870Z,4.37
2018-07-09T22:21:41.247Z,1.87
2018-07-09T22:24:07.673Z,4.50
2018-07-09T22:26:34.083Z,4.03
2018-07-09T22:29:00.455Z,3.10
2018-07-09T22:31:27.807Z,3.57
2018-07-09T22:33:55.155Z,5.00
2018-07-09T22:36:22.481Z,4.93
2018-07-09T22:38:49.835Z,3.20
2018-07-09T22:41:17.158Z,4.57
2018-07-09T22:43:56.100Z,8.07
2018-07-09T22:46:23.384Z,4.13
2018-07-09T22:48:50.751Z,5.20
2018-07-09T22:51:18.294Z,4.97
2018-07-09T22:53:45.444Z,2.27
2018-07-09T22:56:13.627Z,4.93
2018-07-09T22:58:41.736Z,3.90
2018-07-09T23:01:09.152Z,6.57
2018-07-09T23:03:36.618Z,4.43
2018-07-09T23:06:03.995Z,3.83
2018-07-09T23:08:31.481Z,4.03
2018-07-09T23:13:11.133Z,4.07
2018-07-09T23:15:50.890Z,8.73
2018-07-09T23:18:28.479Z,4.93
2018-07-09T23:21:07.335Z,6.30
2018-07-09T23:23:33.703Z,3.40
2018-07-09T23:26:00.100Z,5.23
2018-07-09T23:28:26.926Z,2.17
2018-07-09T23:30:53.303Z,3.50
2018-07-09T23:33:19.672Z,1.80
2018-07-09T23:35:46.054Z,4.57
2018-07-09T23:38:12.430Z,3.00
2018-07-09T23:40:38.828Z,4.40
2018-07-09T23:43:05.231Z,2.63
2018-07-09T23:45:31.621Z,1.87
2018-07-09T23:47:57.995Z,3.93
2018-07-09T23:50:24.427Z,3.93
2018-07-09T23:52:50.802Z,3.80
2018-07-09T23:55:17.179Z,5.80
2018-07-09T23:59:32.764Z,4.17
